createdAt,value
2018-05-18T00:01:16.972Z,11.20
2018-05-18T00:03:44.541Z,11.20
2018-05-18T00:06:12.086Z,11.20
2018-05-18T00:08:39.661Z,11.20
2018-05-18T00:11:07.206Z,11.10
2018-05-18T00:13:34.796Z,11.10
2018-05-18T00:16:02.342Z,11.10
2018-05-18T00:18:29.901Z,11.00
2018-05-18T00:20:57.496Z,11.00
2018-05-18T00:23:25.815Z,10.90
2018-05-18T00:25:53.381Z,10.90
2018-05-18T00:28:20.960Z,11.00
2018-05-18T00:30:49.515Z,11.00
2018-05-18T00:33:17.091Z,10.90
2018-05-18T00:35:44.683Z,10.80
2018-05-18T00:38:12.237Z,10.90
2018-05-18T00:40:39.815Z,10.80
2018-05-18T00:43:07.417Z,10.70
2018-05-18T00:45:35.006Z,10.80
2018-05-18T00:48:02.557Z,10.70
2018-05-18T00:50:30.118Z,10.70
2018-05-18T00:52:57.681Z,10.70
2018-05-18T00:55:37.033Z,10.70
2018-05-18T00:58:04.575Z,10.60
2018-05-18T01:00:32.142Z,10.60
2018-05-18T01:02:59.691Z,10.50
2018-05-18T01:05:27.256Z,10.60
2018-05-18T01:07:54.803Z,10.60
2018-05-18T01:10:22.358Z,10.50
2018-05-18T01:12:49.901Z,10.50
2018-05-18T01:15:17.492Z,10.50
2018-05-18T01:17:45.059Z,10.50
2018-05-18T01:20:12.650Z,10.40
2018-05-18T01:22:40.224Z,10.50
2018-05-18T01:25:07.794Z,10.50
2018-05-18T01:27:36.113Z,10.40
2018-05-18T01:30:03.682Z,10.40
2018-05-18T01:32:31.240Z,10.40
2018-05-18T01:34:58.823Z,10.40
2018-05-18T01:37:26.375Z,10.40
2018-05-18T01:39:53.977Z,10.40
2018-05-18T01:42:21.536Z,10.30
2018-05-18T01:44:49.836Z,10.30
2018-05-18T01:47:17.403Z,10.20
2018-05-18T01:49:44.955Z,10.30
2018-05-18T01:52:12.533Z,10.20
2018-05-18T01:54:40.082Z,10.20
2018-05-18T01:57:07.657Z,10.20
2018-05-18T01:59:35.210Z,10.20
2018-05-18T02:02:02.783Z,10.20
2018-05-18T02:04:30.341Z,10.20
2018-05-18T02:06:57.903Z,10.10
2018-05-18T02:09:25.443Z,10.10
2018-05-18T02:11:53.026Z,10.10
2018-05-18T02:14:20.584Z,10.00
2018-05-18T02:16:48.147Z,10.00
2018-05-18T02:19:15.703Z,10.00
2018-05-18T02:21:43.301Z,9.90
2018-05-18T02:24:11.994Z,10.00
2018-05-18T02:26:39.562Z,9.90
2018-05-18T02:29:07.126Z,9.90
2018-05-18T02:31:34.716Z,9.90
2018-05-18T02:34:02.316Z,9.90
2018-05-18T02:36:29.878Z,9.80
2018-05-18T02:38:57.435Z,9.90
2018-05-18T02:41:24.994Z,9.90
2018-05-18T02:43:52.548Z,9.90
2018-05-18T02:46:20.151Z,9.80
2018-05-18T02:48:47.718Z,9.80
2018-05-18T02:51:15.323Z,9.80
2018-05-18T02:53:42.874Z,9.80
2018-05-18T02:56:10.444Z,9.80
2018-05-18T02:58:38.005Z,9.80
2018-05-18T03:01:05.569Z,9.80
2018-05-18T03:03:33.124Z,9.90
2018-05-18T03:06:01.678Z,9.80
2018-05-18T03:08:29.285Z,9.80
2018-05-18T03:10:56.844Z,9.80
2018-05-18T03:13:25.421Z,9.80
2018-05-18T03:15:52.967Z,9.80
2018-05-18T03:18:20.544Z,9.80
2018-05-18T03:20:48.076Z,9.80
2018-05-18T03:23:15.656Z,9.80
2018-05-18T03:25:43.202Z,9.80
2018-05-18T03:28:10.764Z,9.90
2018-05-18T03:30:39.332Z,10.00
2018-05-18T03:33:07.432Z,10.00
2018-05-18T03:35:34.960Z,10.10
2018-05-18T03:38:02.539Z,10.10
2018-05-18T03:40:30.080Z,10.20
2018-05-18T03:42:57.661Z,10.20
2018-05-18T03:45:25.217Z,10.20
2018-05-18T03:47:52.785Z,10.30
2018-05-18T03:50:20.359Z,10.30
2018-05-18T03:52:47.915Z,10.40
2018-05-18T03:55:15.447Z,10.40
2018-05-18T03:57:43.007Z,10.40
2018-05-18T04:00:10.548Z,10.50
2018-05-18T04:02:51.093Z,10.60
2018-05-18T04:05:30.602Z,10.60
2018-05-18T04:08:09.956Z,10.70
2018-05-18T04:10:37.503Z,10.70
2018-05-18T04:13:05.063Z,10.90
2018-05-18T04:15:32.624Z,10.90
2018-05-18T04:18:00.214Z,10.90
2018-05-18T04:20:27.762Z,11.10
2018-05-18T04:22:55.290Z,11.10
2018-05-18T04:25:22.854Z,11.30
2018-05-18T04:27:50.379Z,11.50
2018-05-18T04:30:18.841Z,11.70
2018-05-18T04:32:46.359Z,11.70
2018-05-18T04:35:13.915Z,11.80
2018-05-18T04:37:41.464Z,12.00
2018-05-18T04:40:09.037Z,12.00
2018-05-18T04:42:36.588Z,12.00
2018-05-18T04:45:04.172Z,11.90
2018-05-18T04:47:31.700Z,11.90
2018-05-18T04:49:59.304Z,11.90
2018-05-18T04:52:27.622Z,12.00
2018-05-18T04:54:55.215Z,12.00
2018-05-18T04:57:22.766Z,12.10
2018-05-18T04:59:50.335Z,12.00
2018-05-18T05:02:17.894Z,12.10
2018-05-18T05:04:45.445Z,12.10
2018-05-18T05:07:12.996Z,12.30
2018-05-18T05:09:40.569Z,12.30
2018-05-18T05:12:08.107Z,12.50
2018-05-18T05:14:36.428Z,12.70
2018-05-18T05:17:03.962Z,12.70
2018-05-18T05:19:31.535Z,12.80
2018-05-18T05:21:59.086Z,12.80
2018-05-18T05:24:26.622Z,12.70
2018-05-18T05:26:54.951Z,12.80
2018-05-18T05:29:22.490Z,12.80
2018-05-18T05:31:50.043Z,12.60
2018-05-18T05:34:17.580Z,12.60
2018-05-18T05:36:48.585Z,12.50
2018-05-18T05:39:16.756Z,12.50
2018-05-18T05:41:44.325Z,12.50
2018-05-18T05:44:11.887Z,12.30
2018-05-18T05:46:39.439Z,12.50
2018-05-18T05:49:06.978Z,12.70
2018-05-18T05:51:34.563Z,12.80
2018-05-18T05:54:02.131Z,13.10
2018-05-18T05:56:29.680Z,13.60
2018-05-18T05:58:57.217Z,13.90
2018-05-18T06:01:24.766Z,14.10
2018-05-18T06:03:52.319Z,14.10
2018-05-18T06:06:20.657Z,14.20
2018-05-18T06:08:49.172Z,14.10
2018-05-18T06:11:17.520Z,13.90
2018-05-18T06:13:45.059Z,13.90
2018-05-18T06:16:12.624Z,13.90
2018-05-18T06:18:40.164Z,13.80
2018-05-18T06:21:07.719Z,13.50
2018-05-18T06:23:35.271Z,13.50
2018-05-18T06:26:02.822Z,13.70
2018-05-18T06:28:30.413Z,13.70
2018-05-18T06:30:57.994Z,13.90
2018-05-18T06:33:25.536Z,14.10
2018-05-18T06:35:53.295Z,14.30
2018-05-18T06:38:20.861Z,14.20
2018-05-18T06:40:48.409Z,14.00
2018-05-18T06:43:15.967Z,13.90
2018-05-18T06:45:43.506Z,13.80
2018-05-18T06:48:11.059Z,13.90
2018-05-18T06:50:39.374Z,14.40
2018-05-18T06:53:06.953Z,14.40
2018-05-18T06:55:34.496Z,14.70
2018-05-18T06:58:02.861Z,15.00
2018-05-18T07:00:30.414Z,15.00
2018-05-18T07:02:57.977Z,15.40
2018-05-18T07:05:25.535Z,16.20
2018-05-18T07:07:53.102Z,16.40
2018-05-18T07:10:20.648Z,17.70
2018-05-18T07:12:48.205Z,18.20
2018-05-18T07:15:15.746Z,18.70
2018-05-18T07:17:44.075Z,19.00
2018-05-18T07:20:11.623Z,19.00
2018-05-18T07:22:39.193Z,19.10
2018-05-18T07:28:09.568Z,18.20
2018-05-18T07:30:37.104Z,18.60
2018-05-18T07:33:04.744Z,19.70
2018-05-18T07:35:32.273Z,20.40
2018-05-18T07:37:59.824Z,19.70
2018-05-18T07:40:28.127Z,20.10
2018-05-18T07:42:55.686Z,20.10
2018-05-18T07:45:23.227Z,20.70
2018-05-18T07:47:50.785Z,21.00
2018-05-18T07:50:18.322Z,21.30
2018-05-18T07:52:45.868Z,21.60
2018-05-18T07:55:13.411Z,21.30
2018-05-18T07:57:41.025Z,20.20
2018-05-18T08:00:08.572Z,20.30
2018-05-18T08:02:36.125Z,19.40
2018-05-18T08:05:03.655Z,19.00
2018-05-18T08:07:32.037Z,19.10
2018-05-18T08:10:00.332Z,18.90
2018-05-18T08:12:27.868Z,18.90
2018-05-18T08:14:56.171Z,18.60
2018-05-18T08:17:23.743Z,18.60
2018-05-18T08:19:51.305Z,18.10
2018-05-18T08:22:18.838Z,18.30
2018-05-18T08:24:46.404Z,18.10
2018-05-18T08:27:22.600Z,18.10
2018-05-18T08:29:50.957Z,18.00
2018-05-18T08:32:18.494Z,17.90
2018-05-18T08:34:46.053Z,17.90
2018-05-18T08:37:14.392Z,18.10
2018-05-18T08:39:41.934Z,18.10
2018-05-18T08:42:09.689Z,18.00
2018-05-18T08:44:37.235Z,17.60
2018-05-18T08:47:05.708Z,17.80
2018-05-18T08:49:34.182Z,17.70
2018-05-18T08:52:02.495Z,17.50
2018-05-18T08:54:30.076Z,17.50
2018-05-18T08:56:57.616Z,17.60
2018-05-18T08:59:25.190Z,17.80
2018-05-18T09:01:52.719Z,17.80
2018-05-18T09:04:20.280Z,17.80
2018-05-18T09:06:47.805Z,18.30
2018-05-18T09:09:16.129Z,18.00
2018-05-18T09:11:43.654Z,18.00
2018-05-18T09:14:12.329Z,17.60
2018-05-18T09:16:40.636Z,17.80
2018-05-18T09:19:08.182Z,17.70
2018-05-18T09:21:35.707Z,17.80
2018-05-18T09:24:03.248Z,17.50
2018-05-18T09:26:30.902Z,17.60
2018-05-18T09:28:58.371Z,17.60
2018-05-18T09:31:25.928Z,18.10
2018-05-18T09:33:53.546Z,18.20
2018-05-18T09:36:21.009Z,18.10
2018-05-18T09:38:48.560Z,18.10
2018-05-18T09:41:16.876Z,18.60
2018-05-18T09:43:44.397Z,18.60
2018-05-18T09:46:12.698Z,18.60
2018-05-18T09:48:40.222Z,18.50
2018-05-18T09:51:08.527Z,18.10
2018-05-18T09:53:36.056Z,18.10
2018-05-18T09:56:04.378Z,18.70
2018-05-18T09:58:31.912Z,18.70
2018-05-18T10:01:00.245Z,18.60
2018-05-18T10:03:27.777Z,18.60
2018-05-18T10:05:55.330Z,18.40
2018-05-18T10:08:23.152Z,18.20
2018-05-18T10:10:50.713Z,18.50
2018-05-18T10:13:18.239Z,18.60
2018-05-18T10:15:45.779Z,18.60
2018-05-18T10:18:13.308Z,18.60
2018-05-18T10:20:41.625Z,19.20
2018-05-18T10:23:09.211Z,19.20
2018-05-18T10:25:36.778Z,19.00
2018-05-18T10:28:04.321Z,18.70
2018-05-18T10:30:31.877Z,18.70
2018-05-18T10:33:00.205Z,18.70
2018-05-18T10:35:28.522Z,18.90
2018-05-18T10:37:56.061Z,18.90
2018-05-18T10:40:23.627Z,19.00
2018-05-18T10:42:51.170Z,18.80
2018-05-18T10:45:19.639Z,19.10
2018-05-18T10:47:47.094Z,19.10
2018-05-18T10:50:15.397Z,19.10
2018-05-18T10:52:42.949Z,19.10
2018-05-18T10:55:10.481Z,18.90
2018-05-18T10:57:38.036Z,18.70
2018-05-18T11:00:05.570Z,19.00
2018-05-18T11:02:33.099Z,19.10
2018-05-18T11:05:00.633Z,18.70
2018-05-18T11:07:28.956Z,19.30
2018-05-18T11:09:56.479Z,19.20
2018-05-18T11:12:24.801Z,19.90
2018-05-18T11:14:52.331Z,19.80
2018-05-18T11:17:19.871Z,20.00
2018-05-18T11:19:48.164Z,19.80
2018-05-18T11:22:15.730Z,19.80
2018-05-18T11:24:43.259Z,20.10
2018-05-18T11:27:10.807Z,19.80
2018-05-18T11:29:38.340Z,20.00
2018-05-18T11:32:05.884Z,19.80
2018-05-18T11:34:33.418Z,20.10
2018-05-18T11:37:01.738Z,19.30
2018-05-18T11:39:29.276Z,19.30
2018-05-18T11:41:56.822Z,19.60
2018-05-18T11:44:25.132Z,20.00
2018-05-18T11:46:52.701Z,19.90
2018-05-18T11:49:20.229Z,20.10
2018-05-18T11:51:47.779Z,19.60
2018-05-18T11:54:16.107Z,19.60
2018-05-18T11:56:43.676Z,19.60
2018-05-18T11:59:11.199Z,19.40
2018-05-18T12:01:38.767Z,19.40
2018-05-18T12:04:06.307Z,19.20
2018-05-18T12:06:33.844Z,19.30
2018-05-18T12:09:02.159Z,19.10
2018-05-18T12:11:29.691Z,19.10
2018-05-18T12:13:58.037Z,18.50
2018-05-18T12:16:25.561Z,18.50
2018-05-18T12:18:53.105Z,18.20
2018-05-18T12:21:20.630Z,18.40
2018-05-18T12:23:48.185Z,18.50
2018-05-18T12:26:16.171Z,18.60
2018-05-18T13:50:40.909Z,18.40
2018-05-18T13:53:08.441Z,17.80
2018-05-18T13:55:35.982Z,17.80
2018-05-18T13:58:03.502Z,17.80
2018-05-18T14:00:31.052Z,17.60
2018-05-18T14:02:58.577Z,17.50
2018-05-18T14:05:26.129Z,17.40
2018-05-18T14:07:53.646Z,17.50
2018-05-18T14:10:21.214Z,17.40
2018-05-18T14:12:49.508Z,17.40
2018-05-18T14:15:17.069Z,17.40
2018-05-18T14:17:45.363Z,16.90
2018-05-18T14:20:12.902Z,17.00
2018-05-18T14:22:41.221Z,17.00
2018-05-18T14:25:09.594Z,16.80
2018-05-18T14:27:37.122Z,16.80
2018-05-18T14:30:05.426Z,17.00
2018-05-18T14:32:32.971Z,16.90
2018-05-18T14:35:00.540Z,16.90
2018-05-18T14:37:28.067Z,16.90
2018-05-18T14:39:56.388Z,16.80
2018-05-18T14:42:23.944Z,16.70
2018-05-18T14:44:51.611Z,16.60
2018-05-18T14:47:19.134Z,16.60
2018-05-18T14:49:47.433Z,16.70
2018-05-18T14:52:14.989Z,16.60
2018-05-18T14:54:42.522Z,16.60
2018-05-18T14:57:10.847Z,16.40
2018-05-18T14:59:38.376Z,16.40
2018-05-18T15:02:05.986Z,16.50
2018-05-18T15:04:33.528Z,16.50
2018-05-18T15:07:01.059Z,16.50
2018-05-18T15:09:29.355Z,16.40
2018-05-18T15:11:56.906Z,16.40
2018-05-18T15:14:24.431Z,16.10
2018-05-18T15:16:51.995Z,16.10
2018-05-18T15:19:20.299Z,16.10
2018-05-18T15:21:47.893Z,16.10
2018-05-18T15:24:15.451Z,16.10
2018-05-18T15:26:43.003Z,16.10
2018-05-18T15:29:10.540Z,16.00
2018-05-18T15:31:38.079Z,16.00
2018-05-18T15:34:06.382Z,15.80
2018-05-18T15:36:33.931Z,15.80
2018-05-18T15:39:02.324Z,15.80
2018-05-18T15:41:29.878Z,15.80
2018-05-18T15:43:57.412Z,15.70
2018-05-18T15:46:25.729Z,15.60
2018-05-18T15:48:53.274Z,15.60
2018-05-18T15:51:20.835Z,15.60
2018-05-18T15:53:48.358Z,15.50
2018-05-18T15:56:15.905Z,15.40
2018-05-18T15:58:43.431Z,15.30
2018-05-18T16:01:10.981Z,15.30
2018-05-18T16:03:38.519Z,15.20
2018-05-18T16:06:06.819Z,15.30
2018-05-18T16:08:34.367Z,15.30
2018-05-18T16:11:01.909Z,15.20
2018-05-18T16:13:30.233Z,15.10
2018-05-18T16:15:57.771Z,15.10
2018-05-18T16:18:25.328Z,15.10
2018-05-18T16:20:52.913Z,15.20
2018-05-18T16:23:21.462Z,15.10
2018-05-18T16:25:49.768Z,15.00
2018-05-18T16:28:17.417Z,15.00
2018-05-18T16:30:44.902Z,15.00
2018-05-18T16:33:12.456Z,15.00
2018-05-18T16:35:40.008Z,15.00
2018-05-18T16:38:07.584Z,15.00
2018-05-18T16:40:35.124Z,15.00
2018-05-18T16:43:02.703Z,14.90
2018-05-18T16:45:30.242Z,14.80
2018-05-18T16:47:57.805Z,14.90
2018-05-18T16:50:25.344Z,14.90
2018-05-18T16:52:53.729Z,14.80
2018-05-18T16:55:21.408Z,14.80
2018-05-18T16:57:48.960Z,14.90
2018-05-18T17:00:16.499Z,14.90
2018-05-18T17:02:44.845Z,14.80
2018-05-18T17:05:12.396Z,14.70
2018-05-18T17:07:39.971Z,14.60
2018-05-18T17:10:07.511Z,14.70
2018-05-18T17:12:35.080Z,14.70
2018-05-18T17:15:02.620Z,14.70
2018-05-18T17:17:30.179Z,14.80
2018-05-18T17:19:57.746Z,14.80
2018-05-18T17:22:25.276Z,14.80
2018-05-18T17:24:52.819Z,14.70
2018-05-18T17:27:21.118Z,14.80
2018-05-18T17:29:48.662Z,14.70
2018-05-18T17:32:16.949Z,14.60
2018-05-18T17:34:44.501Z,14.60
2018-05-18T17:37:12.041Z,14.50
2018-05-18T17:39:40.373Z,14.30
2018-05-18T17:42:07.998Z,14.20
2018-05-18T17:44:35.482Z,14.20
2018-05-18T17:47:03.007Z,14.20
2018-05-18T17:49:31.320Z,14.10
2018-05-18T17:51:58.843Z,14.00
2018-05-18T17:54:27.243Z,14.00
2018-05-18T17:56:54.704Z,14.00
2018-05-18T17:59:22.268Z,14.00
2018-05-18T18:01:49.796Z,13.90
2018-05-18T18:04:18.129Z,13.90
2018-05-18T18:06:47.836Z,13.90
2018-05-18T18:09:15.369Z,13.90
2018-05-18T18:11:42.914Z,13.80
2018-05-18T18:14:11.320Z,13.80
2018-05-18T18:16:38.755Z,13.80
2018-05-18T18:19:07.065Z,13.70
2018-05-18T18:21:34.598Z,13.70
2018-05-18T18:24:02.908Z,13.60
2018-05-18T18:26:30.433Z,13.50
2018-05-18T18:28:58.752Z,13.40
2018-05-18T18:31:26.278Z,13.40
2018-05-18T18:33:53.798Z,13.40
2018-05-18T18:36:21.369Z,13.40
2018-05-18T18:38:48.896Z,13.40
2018-05-18T18:41:16.458Z,13.40
2018-05-18T18:43:43.996Z,13.40
2018-05-18T18:46:11.535Z,13.30
2018-05-18T18:48:39.075Z,13.20
2018-05-18T18:51:07.400Z,13.10
2018-05-18T18:53:34.917Z,13.10
2018-05-18T18:56:03.244Z,13.10
2018-05-18T18:58:30.776Z,13.10
2018-05-18T19:00:58.315Z,13.10
2018-05-18T19:03:26.617Z,13.10
2018-05-18T19:05:54.163Z,13.20
2018-05-18T19:08:22.508Z,13.20
2018-05-18T19:10:50.801Z,13.20
2018-05-18T19:13:19.101Z,13.20
2018-05-18T19:15:46.642Z,13.10
2018-05-18T19:18:14.947Z,13.10
2018-05-18T19:20:42.503Z,13.10
2018-05-18T19:23:10.047Z,13.10
2018-05-18T19:25:38.364Z,13.10
2018-05-18T19:28:05.901Z,13.10
2018-05-18T19:30:33.462Z,13.10
2018-05-18T19:33:01.706Z,13.10
2018-05-18T19:35:30.032Z,13.00
2018-05-18T19:37:57.552Z,13.00
2018-05-18T19:40:25.873Z,13.00
2018-05-18T19:42:53.464Z,12.90
2018-05-18T19:45:21.783Z,13.00
2018-05-18T19:47:49.307Z,12.90
2018-05-18T19:50:16.836Z,12.90
2018-05-18T19:52:44.417Z,12.90
2018-05-18T19:55:12.706Z,12.80
2018-05-18T19:57:40.245Z,12.80
2018-05-18T20:00:07.762Z,12.80
2018-05-18T20:02:35.311Z,12.80
2018-05-18T20:05:03.604Z,12.70
2018-05-18T20:07:31.159Z,12.70
2018-05-18T20:09:58.713Z,12.80
2018-05-18T20:12:27.033Z,12.90
2018-05-18T20:14:54.546Z,12.90
2018-05-18T20:17:22.850Z,12.90
2018-05-18T20:19:50.413Z,12.90
2018-05-18T20:22:17.956Z,13.00
2018-05-18T20:24:45.489Z,13.10
2018-05-18T20:27:13.048Z,13.00
2018-05-18T20:29:41.546Z,13.00
2018-05-18T20:32:09.094Z,13.00
2018-05-18T20:34:36.618Z,13.00
2018-05-18T20:37:04.159Z,13.10
2018-05-18T20:39:31.687Z,13.00
2018-05-18T20:42:00.007Z,13.00
2018-05-18T20:44:27.527Z,13.00
2018-05-18T20:46:55.859Z,13.00
2018-05-18T20:49:23.403Z,13.10
2018-05-18T20:51:51.051Z,13.10
2018-05-18T20:54:18.524Z,13.10
2018-05-18T20:56:46.059Z,13.10
2018-05-18T20:59:13.604Z,13.10
2018-05-18T21:01:41.953Z,13.10
2018-05-18T21:04:09.496Z,13.10
2018-05-18T21:06:37.029Z,13.00
2018-05-18T21:09:05.398Z,13.10
2018-05-18T21:11:32.944Z,13.10
2018-05-18T21:14:01.271Z,13.00
2018-05-18T21:16:28.810Z,13.10
2018-05-18T21:18:56.365Z,13.10
2018-05-18T21:21:23.884Z,13.00
2018-05-18T21:23:51.434Z,13.00
2018-05-18T21:26:19.798Z,13.00
2018-05-18T21:28:47.339Z,13.00
2018-05-18T21:31:14.865Z,13.00
2018-05-18T21:33:43.176Z,13.00
2018-05-18T21:36:10.723Z,13.00
2018-05-18T21:38:38.275Z,13.00
2018-05-18T21:41:05.818Z,12.90
2018-05-18T21:43:34.163Z,12.90
2018-05-18T21:46:01.694Z,12.90
2018-05-18T21:48:29.230Z,13.00
2018-05-18T21:50:56.760Z,13.00
2018-05-18T21:53:24.311Z,13.00
2018-05-18T21:55:51.835Z,13.00
2018-05-18T22:00:24.001Z,13.10
2018-05-18T22:02:51.564Z,13.10
2018-05-18T22:05:19.100Z,13.10
2018-05-18T22:07:47.447Z,13.10
2018-05-18T22:10:14.986Z,13.10
2018-05-18T22:12:42.518Z,13.00
2018-05-18T22:15:10.090Z,13.10
2018-05-18T22:17:37.623Z,13.10
2018-05-18T22:20:05.172Z,13.10
2018-05-18T22:22:33.500Z,13.10
2018-05-18T22:25:01.074Z,13.10
2018-05-18T22:27:28.600Z,13.10
2018-05-18T22:29:56.161Z,13.10
2018-05-18T22:32:23.699Z,13.10
2018-05-18T22:34:52.010Z,13.20
2018-05-18T22:37:19.531Z,13.20
2018-05-18T22:39:47.865Z,13.20
2018-05-18T22:42:15.389Z,13.20
2018-05-18T22:44:42.929Z,13.20
2018-05-18T22:47:11.239Z,13.10
2018-05-18T22:49:38.784Z,13.20
2018-05-18T22:52:06.384Z,13.10
2018-05-18T22:54:33.940Z,13.00
2018-05-18T22:57:01.491Z,13.00
2018-05-18T22:59:29.041Z,12.90
2018-05-18T23:01:56.572Z,12.90
2018-05-18T23:04:24.885Z,12.90
2018-05-18T23:06:52.428Z,12.90
2018-05-18T23:09:20.284Z,12.90
2018-05-18T23:11:47.828Z,12.80
2018-05-18T23:14:16.148Z,12.90
2018-05-18T23:16:43.737Z,12.80
2018-05-18T23:19:12.260Z,12.80
2018-05-18T23:21:39.938Z,12.80
2018-05-18T23:24:07.532Z,12.80
2018-05-18T23:26:35.103Z,12.80
2018-05-18T23:29:02.701Z,12.80
2018-05-18T23:31:31.054Z,12.70
2018-05-18T23:33:58.577Z,12.70
2018-05-18T23:36:26.125Z,12.70
2018-05-18T23:38:53.655Z,12.70
2018-05-18T23:41:21.970Z,12.70
2018-05-18T23:43:49.518Z,12.70
2018-05-18T23:46:17.069Z,12.80
2018-05-18T23:48:44.605Z,12.80
2018-05-18T23:51:12.157Z,12.80
2018-05-18T23:53:39.688Z,12.80
2018-05-18T23:56:08.278Z,12.90
2018-05-18T23:58:35.814Z,12.90
